Time;durP1;ratioP1;P1;durP2;ratioP2;P2;SDS_P1;SDS_P2;PMS_P1;PMS_P2;Temp;Humidity;BMP_temperature;BMP_pressure;BME280_temperature;BME280_humidity;BME280_pressure;Samples;Min_cycle;Max_cycle;Signal;HPM_P1;HPM_P2
2022/12/10 00:01:16;;;;;;;5.47;4.40;;;;;;;-142.25;100.00;58004.16;5032315;28;20037;-60
2022/12/10 00:03:43;;;;;;;6.73;3.80;;;;;;;-142.25;100.00;58004.16;5032708;28;20038;-61
2022/12/10 00:06:16;;;;;;;6.13;3.87;;;;;;;-142.25;100.00;58004.16;5031614;28;20041;-61
2022/12/10 00:08:42;;;;;;;4.20;3.70;;;;;;;-142.25;100.00;58004.16;5030803;28;20114;-60
2022/12/10 00:11:10;;;;;;;4.13;3.73;;;;;;;-142.25;100.00;58004.16;5033212;28;20442;-62
2022/12/10 00:13:37;;;;;;;5.77;3.60;;;;;;;-142.25;100.00;58004.16;5032669;28;20064;-60
2022/12/10 00:16:05;;;;;;;4.90;4.20;;;;;;;-142.25;100.00;58004.16;5031403;28;20052;-63
2022/12/10 00:18:31;;;;;;;4.17;3.40;;;;;;;-142.25;100.00;58004.16;5036238;28;20067;-63
2022/12/10 00:20:57;;;;;;;4.73;3.10;;;;;;;-142.25;100.00;58004.16;5034508;28;20136;-63
2022/12/10 00:23:23;;;;;;;3.30;2.90;;;;;;;-142.25;100.00;58004.16;5033791;28;20051;-63
2022/12/10 00:25:49;;;;;;;4.50;3.10;;;;;;;-142.25;100.00;58004.16;5033111;28;20060;-63
2022/12/10 00:28:14;;;;;;;4.97;3.37;;;;;;;-142.25;100.00;58004.16;5033829;28;20050;-63
2022/12/10 00:30:40;;;;;;;3.13;2.83;;;;;;;-142.25;100.00;58004.16;5024997;28;20325;-62
2022/12/10 00:33:06;;;;;;;4.73;3.50;;;;;;;-142.25;100.00;58004.16;5029379;28;20481;-63
2022/12/10 00:35:35;;;;;;;3.17;2.70;;;;;;;-142.25;100.00;58004.16;5033715;28;20823;-62
2022/12/10 00:38:01;;;;;;;3.17;2.80;;;;;;;-142.25;100.00;58004.16;5034196;28;20044;-62
2022/12/10 00:40:26;;;;;;;3.70;2.90;;;;;;;-142.25;100.00;58004.16;5031172;28;20126;-63
2022/12/10 00:42:52;;;;;;;2.83;2.37;;;;;;;-142.25;100.00;58004.16;5026035;28;20052;-63
2022/12/10 00:45:18;;;;;;;3.80;3.10;;;;;;;-142.25;100.00;58004.16;5026400;28;20049;-64
2022/12/10 00:47:43;;;;;;;3.50;2.53;;;;;;;-142.25;100.00;58004.16;5046382;28;20523;-62
2022/12/10 00:50:09;;;;;;;3.70;3.30;;;;;;;-142.25;100.00;58004.16;5040387;28;20540;-63
2022/12/10 00:52:35;;;;;;;3.80;3.40;;;;;;;-142.25;100.00;58004.16;5034351;28;20053;-62
2022/12/10 00:55:00;;;;;;;3.20;2.77;;;;;;;-142.25;100.00;58004.16;5029113;28;20040;-62
2022/12/10 00:57:26;;;;;;;4.27;3.00;;;;;;;-142.25;100.00;58004.16;5030051;28;20049;-62
2022/12/10 00:59:52;;;;;;;4.53;3.83;;;;;;;-142.25;100.00;58004.16;5028040;28;20637;-64
2022/12/10 01:02:18;;;;;;;3.60;2.97;;;;;;;-142.25;100.00;58004.16;5031770;28;20033;-63
2022/12/10 01:04:43;;;;;;;3.40;3.03;;;;;;;-142.25;100.00;58004.16;5026490;28;20124;-63
2022/12/10 01:07:10;;;;;;;3.77;3.00;;;;;;;-142.25;100.00;58004.16;5028620;28;20509;-62
2022/12/10 01:09:35;;;;;;;3.67;3.30;;;;;;;-142.25;100.00;58004.16;5032523;28;20213;-62
2022/12/10 01:12:03;;;;;;;4.23;3.47;;;;;;;-142.25;100.00;58004.16;5040256;28;20511;-63
2022/12/10 01:14:32;;;;;;;4.80;4.13;;;;;;;-142.25;100.00;58004.16;5031885;28;20056;-62
2022/12/10 01:17:04;;;;;;;3.90;3.30;;;;;;;-142.25;100.00;58004.16;5033026;28;20341;-62
2022/12/10 01:19:31;;;;;;;3.70;3.27;;;;;;;-142.25;100.00;58004.16;5029855;28;20149;-63
2022/12/10 01:22:00;;;;;;;3.97;3.03;;;;;;;-142.25;100.00;58004.16;5030595;28;20045;-62
2022/12/10 01:24:27;;;;;;;4.43;3.73;;;;;;;-142.25;100.00;58004.16;5032749;28;20510;-63
2022/12/10 01:26:54;;;;;;;3.33;2.90;;;;;;;-142.25;100.00;58004.16;5033067;28;20051;-62
2022/12/10 01:29:21;;;;;;;4.43;3.13;;;;;;;-142.25;100.00;58004.16;5029241;28;20065;-63
2022/12/10 01:31:51;;;;;;;3.90;3.17;;;;;;;-142.25;100.00;58004.16;5032189;28;20050;-62
2022/12/10 01:34:17;;;;;;;4.07;3.47;;;;;;;-142.25;100.00;58004.16;5033982;28;20037;-63
2022/12/10 01:36:47;;;;;;;3.83;2.87;;;;;;;-142.25;100.00;58004.16;5032587;28;20045;-64
2022/12/10 01:39:18;;;;;;;5.13;3.93;;;;;;;-142.25;100.00;58004.16;5032700;28;20033;-61
2022/12/10 01:41:49;;;;;;;3.63;3.13;;;;;;;-142.25;100.00;58004.16;5044514;28;20051;-63
2022/12/10 01:44:16;;;;;;;4.60;3.00;;;;;;;-142.25;100.00;58004.16;5030678;28;20091;-63
2022/12/10 01:46:44;;;;;;;4.97;3.43;;;;;;;-142.25;100.00;58004.16;5031418;28;20504;-62
2022/12/10 01:49:13;;;;;;;3.90;3.50;;;;;;;-142.25;100.00;58004.16;5033428;28;20056;-62
2022/12/10 01:51:42;;;;;;;3.97;3.57;;;;;;;-142.25;100.00;58004.16;5036716;28;20053;-62
2022/12/10 01:54:15;;;;;;;3.50;3.20;;;;;;;-142.25;100.00;58004.16;5036683;28;20068;-62
2022/12/10 01:56:44;;;;;;;3.90;3.23;;;;;;;-142.25;100.00;58004.16;5031333;28;20041;-63
2022/12/10 01:59:10;;;;;;;4.10;3.20;;;;;;;-142.25;100.00;58004.16;5048095;28;20456;-62
2022/12/10 02:01:53;;;;;;;3.67;2.83;;;;;;;-142.25;100.00;58004.16;5034667;28;20049;-62
2022/12/10 02:04:46;;;;;;;3.47;3.10;;;;;;;-142.25;100.00;58004.16;5034940;28;20041;-63
2022/12/10 02:07:33;;;;;;;5.40;3.42;;;;;;;-142.25;100.00;58004.16;5043232;28;20102;-63
2022/12/10 02:10:07;;;;;;;4.30;3.47;;;;;;;-142.25;100.00;58004.16;5029142;28;20518;-64
2022/12/10 02:13:10;;;;;;;3.58;3.03;;;;;;;-142.25;100.00;58004.16;5047164;28;20037;-64
2022/12/10 02:15:48;;;;;;;4.43;3.47;;;;;;;-142.25;100.00;58004.16;5026115;28;20443;-62
2022/12/10 02:18:21;;;;;;;3.13;2.93;;;;;;;-142.25;100.00;58004.16;5036212;28;20083;-62
2022/12/10 02:20:56;;;;;;;4.00;3.70;;;;;;;-142.25;100.00;58004.16;5033819;28;20041;-63
2022/12/10 02:23:35;;;;;;;3.47;3.15;;;;;;;-142.25;100.00;58004.16;5035012;28;20506;-63
2022/12/10 02:26:57;;;;;;;3.47;3.17;;;;;;;-142.25;100.00;58004.16;5042397;28;20075;-63
2022/12/10 02:29:27;;;;;;;3.80;3.47;;;;;;;-142.25;100.00;58004.16;4989322;28;20054;-62
2022/12/10 02:32:03;;;;;;;3.67;3.17;;;;;;;-142.25;100.00;58004.16;4990518;28;20065;-61
2022/12/10 02:34:35;;;;;;;3.73;2.90;;;;;;;-142.25;100.00;58004.16;4975205;28;20497;-61
2022/12/10 02:37:10;;;;;;;3.80;3.20;;;;;;;-142.25;100.00;58004.16;4989524;28;20119;-61
2022/12/10 02:39:40;;;;;;;3.77;3.20;;;;;;;-142.25;100.00;58004.16;4974595;28;20316;-61
2022/12/10 02:42:09;;;;;;;5.17;3.97;;;;;;;-142.25;100.00;58004.16;4992027;28;20045;-63
2022/12/10 02:44:38;;;;;;;3.57;3.27;;;;;;;-142.25;100.00;58004.16;4990220;28;20050;-60
2022/12/10 02:47:06;;;;;;;4.47;3.77;;;;;;;-142.25;100.00;58004.16;4979936;28;20133;-60
2022/12/10 02:49:37;;;;;;;4.70;3.57;;;;;;;-142.25;100.00;58004.16;4977187;28;20046;-61
2022/12/10 02:52:08;;;;;;;4.80;3.73;;;;;;;-142.25;100.00;58004.16;4973764;28;20058;-61
2022/12/10 02:54:42;;;;;;;4.97;3.60;;;;;;;-142.25;100.00;58004.16;4989364;28;20052;-60
2022/12/10 02:57:18;;;;;;;4.07;3.67;;;;;;;-142.25;100.00;58004.16;4990185;28;20042;-60
2022/12/10 02:59:58;;;;;;;4.40;4.00;;;;;;;-142.25;100.00;58004.16;4989084;28;20061;-60
2022/12/10 03:02:40;;;;;;;4.70;4.20;;;;;;;-142.25;100.00;58004.16;4989843;28;20050;-60
2022/12/10 03:05:20;;;;;;;5.10;3.73;;;;;;;-142.25;100.00;58004.16;4991208;28;20216;-59
2022/12/10 03:07:55;;;;;;;5.30;4.07;;;;;;;-142.25;100.00;58004.16;5029354;28;20041;-61
2022/12/10 03:10:30;;;;;;;6.95;3.72;;;;;;;-142.25;100.00;58004.16;5030916;28;20515;-61
2022/12/10 03:13:02;;;;;;;5.55;4.43;;;;;;;-142.25;100.00;58004.16;5026761;28;20048;-60
2022/12/10 03:15:32;;;;;;;7.40;4.90;;;;;;;-142.25;100.00;58004.16;5028448;28;20041;-61
2022/12/10 03:18:04;;;;;;;7.40;4.67;;;;;;;-142.25;100.00;58004.16;5026894;28;20072;-60
2022/12/10 03:20:32;;;;;;;5.97;4.27;;;;;;;-142.25;100.00;58004.16;5031747;28;20799;-60
2022/12/10 03:22:59;;;;;;;6.33;4.23;;;;;;;-142.25;100.00;58004.16;5033537;28;20492;-60
2022/12/10 03:25:27;;;;;;;6.27;4.60;;;;;;;-142.25;100.00;58004.16;5034424;28;20049;-61
2022/12/10 03:27:55;;;;;;;5.67;4.53;;;;;;;-142.25;100.00;58004.16;5034499;28;20036;-61
2022/12/10 03:30:22;;;;;;;5.83;4.37;;;;;;;-142.25;100.00;58004.16;5028450;28;20098;-60
2022/12/10 03:32:49;;;;;;;6.60;4.77;;;;;;;-142.25;100.00;58004.16;5029298;28;20037;-60
2022/12/10 03:35:16;;;;;;;6.33;3.90;;;;;;;-142.25;100.00;58004.16;5031992;28;20110;-60
2022/12/10 03:37:43;;;;;;;4.83;4.37;;;;;;;-142.25;100.00;58004.16;5031389;28;20519;-60
2022/12/10 03:40:12;;;;;;;6.37;4.33;;;;;;;-142.25;100.00;58004.16;5033179;28;20246;-60
2022/12/10 03:42:38;;;;;;;5.90;4.40;;;;;;;-142.25;100.00;58004.16;5031542;28;20045;-60
2022/12/10 03:45:07;;;;;;;5.70;4.50;;;;;;;-142.25;100.00;58004.16;5032181;28;20060;-61
2022/12/10 03:47:33;;;;;;;5.30;4.27;;;;;;;-142.25;100.00;58004.16;5033195;28;20053;-61
2022/12/10 03:49:58;;;;;;;5.23;4.73;;;;;;;-142.25;100.00;58004.16;5033776;28;20041;-62
2022/12/10 03:52:24;;;;;;;9.47;5.00;;;;;;;-142.25;100.00;58004.16;5032318;28;20084;-62
2022/12/10 03:54:50;;;;;;;6.50;4.53;;;;;;;-142.25;100.00;58004.16;5033560;28;20599;-61
2022/12/10 03:57:15;;;;;;;5.50;4.47;;;;;;;-142.25;100.00;58004.16;5034719;28;20053;-61
2022/12/10 03:59:41;;;;;;;5.23;4.30;;;;;;;-142.25;100.00;58004.16;5033698;28;20046;-62
2022/12/10 04:02:06;;;;;;;6.27;4.27;;;;;;;-142.25;100.00;58004.16;5029737;28;20132;-62
2022/12/10 04:04:32;;;;;;;6.93;4.50;;;;;;;-142.25;100.00;58004.16;5032333;28;20360;-60
2022/12/10 04:06:58;;;;;;;6.90;4.63;;;;;;;-142.25;100.00;58004.16;5030930;28;20050;-60
2022/12/10 04:09:23;;;;;;;7.27;4.87;;;;;;;-142.25;100.00;58004.16;5031770;28;20654;-60
2022/12/10 04:11:49;;;;;;;6.33;5.33;;;;;;;-142.25;100.00;58004.16;5031557;28;20049;-61
2022/12/10 04:17:00;;;;;;;5.73;4.53;;;;;;;-142.25;100.00;58004.16;5030996;28;20053;-60
2022/12/10 04:19:25;;;;;;;6.60;4.70;;;;;;;-142.25;100.00;58004.16;5040284;28;20064;-59
2022/12/10 04:27:27;;;;;;;7.43;5.55;;;;;;;-142.25;100.00;58004.16;5031056;28;20041;-60
2022/12/10 04:29:53;;;;;;;7.07;5.27;;;;;;;-142.25;100.00;58004.16;5032120;28;20459;-59
2022/12/10 04:32:21;;;;;;;7.00;4.90;;;;;;;-142.25;100.00;58004.16;5033475;28;20176;-62
2022/12/10 04:34:46;;;;;;;7.50;5.03;;;;;;;-142.25;100.00;58004.16;5034217;28;20186;-61
2022/12/10 04:37:12;;;;;;;8.00;5.80;;;;;;;-142.25;100.00;58004.16;5033942;28;20053;-61
2022/12/10 04:39:39;;;;;;;7.13;5.00;;;;;;;-142.25;100.00;58004.16;5033315;28;20469;-60
2022/12/10 04:42:05;;;;;;;7.90;5.47;;;;;;;-142.25;100.00;58004.16;5028524;28;20558;-61
2022/12/10 04:44:31;;;;;;;7.57;5.70;;;;;;;-142.25;100.00;58004.16;5032020;28;20045;-61
2022/12/10 04:46:56;;;;;;;6.40;4.67;;;;;;;-142.25;100.00;58004.16;5030034;28;20045;-61
2022/12/10 04:49:22;;;;;;;9.17;6.13;;;;;;;-142.25;100.00;58004.16;5028911;28;20488;-65
2022/12/10 04:51:49;;;;;;;7.43;5.73;;;;;;;-142.25;100.00;58004.16;5029707;28;20052;-61
2022/12/10 04:54:14;;;;;;;7.60;5.70;;;;;;;-142.25;100.00;58004.16;5030243;28;20068;-60
2022/12/10 04:56:40;;;;;;;10.20;6.03;;;;;;;-142.25;100.00;58004.16;5031612;28;20464;-60
2022/12/10 04:59:06;;;;;;;9.70;5.53;;;;;;;-142.25;100.00;58004.16;5038064;28;20052;-61
2022/12/10 05:01:32;;;;;;;6.77;4.60;;;;;;;-142.25;100.00;58004.16;5032977;28;20044;-61
2022/12/10 05:04:00;;;;;;;7.90;5.00;;;;;;;-142.25;100.00;58004.16;5030452;28;20164;-60
2022/12/10 05:06:26;;;;;;;7.33;5.33;;;;;;;-142.25;100.00;58004.16;5032087;28;20061;-61
2022/12/10 05:08:51;;;;;;;8.50;6.50;;;;;;;-142.25;100.00;58004.16;5030850;28;20261;-60
2022/12/10 05:11:19;;;;;;;21.77;13.33;;;;;;;-142.25;100.00;58004.16;5029246;28;20492;-60
2022/12/10 05:13:45;;;;;;;19.37;14.37;;;;;;;-142.25;100.00;58004.16;5028253;28;20476;-60
2022/12/10 05:16:13;;;;;;;16.73;12.23;;;;;;;-142.25;100.00;58004.16;5031438;28;20037;-60
2022/12/10 05:18:39;;;;;;;10.27;8.23;;;;;;;-142.25;100.00;58004.16;5031586;28;20048;-61
2022/12/10 05:21:09;;;;;;;8.63;6.50;;;;;;;-142.25;100.00;58004.16;5030145;28;20881;-60
2022/12/10 05:23:39;;;;;;;8.10;6.00;;;;;;;-142.25;100.00;58004.16;5035995;28;20094;-61
2022/12/10 05:26:10;;;;;;;7.53;5.50;;;;;;;-142.25;100.00;58004.16;5038072;28;20037;-61
2022/12/10 05:28:39;;;;;;;7.77;5.73;;;;;;;-142.25;100.00;58004.16;5036346;28;20130;-61
2022/12/10 05:31:11;;;;;;;7.77;5.63;;;;;;;-142.25;100.00;58004.16;5035901;28;20045;-61
2022/12/10 05:33:37;;;;;;;6.43;4.90;;;;;;;-142.25;100.00;58004.16;5035872;28;20048;-60
2022/12/10 05:36:04;;;;;;;7.77;5.40;;;;;;;-142.25;100.00;58004.16;5036655;28;20034;-61
2022/12/10 05:38:32;;;;;;;6.77;5.37;;;;;;;-142.25;100.00;58004.16;5037222;28;20045;-61
2022/12/10 05:41:06;;;;;;;6.80;5.90;;;;;;;-142.25;100.00;58004.16;5033441;28;20045;-60
2022/12/10 05:43:31;;;;;;;7.87;6.27;;;;;;;-142.25;100.00;58004.16;5035206;28;20090;-62
2022/12/10 05:46:05;;;;;;;9.93;7.33;;;;;;;-142.25;100.00;58004.16;5035339;28;20045;-61
2022/12/10 05:48:33;;;;;;;10.90;8.23;;;;;;;-142.25;100.00;58004.16;5036863;28;20038;-61
2022/12/10 05:51:06;;;;;;;11.37;9.13;;;;;;;-142.25;100.00;58004.16;5034038;28;20075;-61
2022/12/10 05:53:32;;;;;;;18.17;13.27;;;;;;;-142.25;100.00;58004.16;5034557;28;20472;-61
2022/12/10 05:56:08;;;;;;;11.40;8.97;;;;;;;-142.25;100.00;58004.16;5034185;28;20051;-60
2022/12/10 05:58:34;;;;;;;7.50;6.68;;;;;;;-142.25;100.00;58004.16;5033872;28;20034;-62
2022/12/10 06:01:04;;;;;;;9.63;5.97;;;;;;;-142.25;100.00;58004.16;5033768;28;20053;-61
2022/12/10 06:03:30;;;;;;;9.10;6.13;;;;;;;-142.25;100.00;58004.16;5033027;28;20099;-61
2022/12/10 06:05:56;;;;;;;8.47;6.57;;;;;;;-142.25;100.00;58004.16;5035214;28;20049;-60
2022/12/10 06:08:22;;;;;;;10.10;7.13;;;;;;;-142.25;100.00;58004.16;5035037;28;20052;-60
2022/12/10 06:10:48;;;;;;;10.10;7.17;;;;;;;-142.25;100.00;58004.16;5036256;28;20095;-61
2022/12/10 06:13:13;;;;;;;10.07;7.37;;;;;;;-142.25;100.00;58004.16;5035810;28;20058;-60
2022/12/10 06:15:41;;;;;;;12.13;7.77;;;;;;;-142.25;100.00;58004.16;5042991;28;20057;-62
2022/12/10 06:18:07;;;;;;;12.10;7.20;;;;;;;-142.25;100.00;58004.16;5039637;28;20408;-62
2022/12/10 06:20:33;;;;;;;13.80;8.33;;;;;;;-142.25;100.00;58004.16;5035703;28;20052;-61
2022/12/10 06:22:58;;;;;;;12.97;7.63;;;;;;;-142.25;100.00;58004.16;5034980;28;20045;-60
2022/12/10 06:25:26;;;;;;;10.70;7.60;;;;;;;-142.25;100.00;58004.16;5034297;28;20068;-60
2022/12/10 06:27:52;;;;;;;14.63;8.43;;;;;;;-142.25;100.00;58004.16;5034802;28;20480;-60
2022/12/10 06:30:17;;;;;;;13.37;8.30;;;;;;;-142.25;100.00;58004.16;5036301;28;20135;-60
2022/12/10 06:32:43;;;;;;;11.90;8.23;;;;;;;-142.25;100.00;58004.16;5033574;28;20049;-60
2022/12/10 06:35:10;;;;;;;14.07;8.50;;;;;;;-142.25;100.00;58004.16;5032944;28;20053;-61
2022/12/10 06:37:35;;;;;;;14.47;8.73;;;;;;;-142.25;100.00;58004.16;5033810;28;20037;-61
2022/12/10 06:40:02;;;;;;;12.67;8.10;;;;;;;-142.25;100.00;58004.16;5050150;28;20045;-60
2022/12/10 06:42:27;;;;;;;13.57;7.63;;;;;;;-142.25;100.00;58004.16;5033842;28;20120;-61
2022/12/10 06:44:53;;;;;;;17.60;9.37;;;;;;;-142.25;100.00;58004.16;5032487;28;20541;-60
2022/12/10 06:47:18;;;;;;;14.17;8.53;;;;;;;-142.25;100.00;58004.16;5034311;28;20160;-59
2022/12/10 06:49:44;;;;;;;13.40;8.47;;;;;;;-142.25;100.00;58004.16;5030983;28;20565;-60
2022/12/10 06:52:10;;;;;;;12.50;8.10;;;;;;;-142.25;100.00;58004.16;5033152;28;20045;-61
2022/12/10 06:54:35;;;;;;;14.17;9.13;;;;;;;-142.25;100.00;58004.16;5026386;28;20045;-61
2022/12/10 06:57:01;;;;;;;13.13;8.43;;;;;;;-142.25;100.00;58004.16;5032332;28;20037;-59
2022/12/10 06:59:26;;;;;;;16.50;9.43;;;;;;;-142.25;100.00;58004.16;5030096;28;20049;-61
2022/12/10 07:01:52;;;;;;;14.43;9.00;;;;;;;-142.25;100.00;58004.16;5048676;28;20041;-60
2022/12/10 07:04:18;;;;;;;17.03;9.73;;;;;;;-142.25;100.00;58004.16;5031998;28;20041;-61
2022/12/10 07:06:44;;;;;;;15.27;9.60;;;;;;;-142.25;100.00;58004.16;5031465;28;20049;-60
2022/12/10 07:09:10;;;;;;;15.97;10.30;;;;;;;-142.25;100.00;58004.16;5032686;28;20119;-61
2022/12/10 07:11:36;;;;;;;16.37;10.80;;;;;;;-142.25;100.00;58004.16;5035058;28;20032;-60
2022/12/10 07:14:02;;;;;;;14.90;9.17;;;;;;;-142.25;100.00;58004.16;5039961;28;20404;-60
2022/12/10 07:16:29;;;;;;;16.43;9.67;;;;;;;-142.25;100.00;58004.16;5033987;28;20132;-63
2022/12/10 07:18:57;;;;;;;15.30;9.40;;;;;;;-142.25;100.00;58004.16;5032969;28;20041;-61
2022/12/10 07:21:34;;;;;;;13.00;8.20;;;;;;;-142.25;100.00;58004.16;5034495;28;20038;-61
2022/12/10 07:24:05;;;;;;;16.83;9.30;;;;;;;-142.25;100.00;58004.16;5032576;28;20504;-59
2022/12/10 07:26:34;;;;;;;16.93;9.00;;;;;;;-142.25;100.00;58004.16;5033054;28;20110;-63
2022/12/10 07:29:01;;;;;;;14.50;9.70;;;;;;;-142.25;100.00;58004.16;5031025;28;20516;-61
2022/12/10 07:31:26;;;;;;;15.77;9.67;;;;;;;-142.25;100.00;58004.16;5027995;28;20590;-60
2022/12/10 07:33:53;;;;;;;14.30;9.17;;;;;;;-142.25;100.00;58004.16;5026353;28;20079;-59
2022/12/10 07:36:22;;;;;;;13.00;9.13;;;;;;;-142.25;100.00;58004.16;5028274;28;20052;-60
2022/12/10 07:38:48;;;;;;;12.57;9.37;;;;;;;-142.25;100.00;58004.16;5033020;28;20049;-63
2022/12/10 07:41:15;;;;;;;13.40;9.90;;;;;;;-142.25;100.00;58004.16;5031046;28;20045;-59
2022/12/10 07:43:43;;;;;;;16.20;9.87;;;;;;;-142.25;100.00;58004.16;5033278;28;20044;-60
2022/12/10 07:46:25;;;;;;;13.27;9.10;;;;;;;-142.25;100.00;58004.16;5030399;28;20186;-61
2022/12/10 07:48:51;;;;;;;15.67;10.10;;;;;;;-142.25;100.00;58004.16;5032415;28;20416;-60
2022/12/10 07:51:19;;;;;;;15.47;8.67;;;;;;;-142.25;100.00;58004.16;5032239;28;20459;-61
2022/12/10 07:53:44;;;;;;;13.80;8.83;;;;;;;-142.25;100.00;58004.16;5032423;28;20045;-60
2022/12/10 07:56:10;;;;;;;12.63;8.00;;;;;;;-142.25;100.00;58004.16;5032441;28;20049;-58
2022/12/10 07:58:36;;;;;;;15.53;9.37;;;;;;;-142.25;100.00;58004.16;5033056;28;20573;-60
2022/12/10 08:01:10;;;;;;;17.53;10.90;;;;;;;-142.25;100.00;58004.16;5033760;28;20061;-61
2022/12/10 08:03:36;;;;;;;17.10;10.63;;;;;;;-142.25;100.00;58004.16;5032650;28;20128;-61
2022/12/10 08:06:09;;;;;;;16.03;10.33;;;;;;;-142.25;100.00;58004.16;5033501;28;20468;-60
2022/12/10 08:08:36;;;;;;;18.47;11.37;;;;;;;-142.25;100.00;58004.16;5033429;28;20072;-60
2022/12/10 08:11:03;;;;;;;17.83;10.97;;;;;;;-142.25;100.00;58004.16;5032587;28;20132;-60
2022/12/10 08:13:29;;;;;;;16.30;9.77;;;;;;;-142.25;100.00;58004.16;5032681;28;20033;-61
2022/12/10 08:16:07;;;;;;;18.40;11.73;;;;;;;-142.25;100.00;58004.16;5028244;28;20574;-60
2022/12/10 08:18:34;;;;;;;15.20;10.20;;;;;;;-142.25;100.00;58004.16;5033317;28;20077;-61
2022/12/10 08:21:18;;;;;;;16.63;9.87;;;;;;;-142.25;100.00;58004.16;5028434;28;20557;-62
2022/12/10 08:23:45;;;;;;;15.63;10.57;;;;;;;-142.25;100.00;58004.16;5031512;28;20037;-60
2022/12/10 08:26:14;;;;;;;27.73;16.20;;;;;;;-142.25;100.00;58004.16;5032373;28;20056;-61
2022/12/10 08:28:40;;;;;;;20.37;11.90;;;;;;;-142.25;100.00;58004.16;5032529;28;20056;-59
2022/12/10 08:31:09;;;;;;;17.00;10.37;;;;;;;-142.25;100.00;58004.16;5031590;28;20413;-62
2022/12/10 08:33:36;;;;;;;14.37;9.73;;;;;;;-142.25;100.00;58004.16;5031054;28;20049;-59
2022/12/10 08:36:03;;;;;;;20.57;10.57;;;;;;;-142.25;100.00;58004.16;5032055;28;20037;-61
2022/12/10 08:38:30;;;;;;;14.43;9.63;;;;;;;-142.25;100.00;58004.16;5031318;28;20060;-62
2022/12/10 08:40:56;;;;;;;16.43;10.67;;;;;;;-142.25;100.00;58004.16;5032507;28;20053;-58
2022/12/10 08:43:22;;;;;;;20.97;12.53;;;;;;;-142.25;100.00;58004.16;5032304;28;20053;-60
2022/12/10 08:45:47;;;;;;;19.57;12.20;;;;;;;-142.25;100.00;58004.16;5030773;28;20489;-61
2022/12/10 08:48:13;;;;;;;17.67;10.37;;;;;;;-142.25;100.00;58004.16;5031317;28;20053;-60
2022/12/10 08:50:39;;;;;;;16.57;10.67;;;;;;;-142.25;100.00;58004.16;5031631;28;20037;-60
2022/12/10 08:53:04;;;;;;;15.97;10.17;;;;;;;-142.25;100.00;58004.16;5032616;28;20052;-59
2022/12/10 08:55:30;;;;;;;19.30;11.10;;;;;;;-142.25;100.00;58004.16;5032457;28;20046;-59
2022/12/10 08:57:57;;;;;;;17.50;11.10;;;;;;;-142.25;100.00;58004.16;5027898;28;20394;-63
2022/12/10 09:00:23;;;;;;;17.57;11.30;;;;;;;-142.25;100.00;58004.16;5028638;28;20041;-61
2022/12/10 09:02:52;;;;;;;16.70;10.70;;;;;;;-142.25;100.00;58004.16;5034902;28;20040;-64
2022/12/10 09:05:17;;;;;;;17.03;10.27;;;;;;;-142.25;100.00;58004.16;5030574;28;20501;-60
2022/12/10 09:07:43;;;;;;;14.87;9.77;;;;;;;-142.25;100.00;58004.16;5033455;28;20049;-59
2022/12/10 09:10:12;;;;;;;16.40;9.67;;;;;;;-142.25;100.00;58004.16;5029734;28;20049;-62
2022/12/10 09:12:38;;;;;;;15.30;10.07;;;;;;;-142.25;100.00;58004.16;5027625;28;20045;-62
2022/12/10 09:15:05;;;;;;;16.17;9.47;;;;;;;-142.25;100.00;58004.16;5035807;28;20060;-60
2022/12/10 09:17:31;;;;;;;15.60;8.90;;;;;;;-142.25;100.00;58004.16;5030128;28;20128;-67
2022/12/10 09:19:56;;;;;;;20.53;11.73;;;;;;;-142.25;100.00;58004.16;5029850;28;20293;-61
2022/12/10 09:22:22;;;;;;;16.57;10.13;;;;;;;-142.25;100.00;58004.16;5040049;28;20107;-63
2022/12/10 09:24:47;;;;;;;18.23;10.70;;;;;;;-142.25;100.00;58004.16;5028508;28;20049;-61
2022/12/10 09:27:16;;;;;;;16.50;10.07;;;;;;;-142.25;100.00;58004.16;5041228;28;20055;-61
2022/12/10 09:29:42;;;;;;;15.30;10.30;;;;;;;-142.25;100.00;58004.16;5035583;28;20296;-62
2022/12/10 09:32:07;;;;;;;17.20;10.63;;;;;;;-142.25;100.00;58004.16;5035031;28;20052;-62
2022/12/10 09:34:33;;;;;;;15.43;10.47;;;;;;;-142.25;100.00;58004.16;5033496;28;20121;-65
2022/12/10 09:36:59;;;;;;;17.07;9.40;;;;;;;-142.25;100.00;58004.16;5029632;28;20453;-70
2022/12/10 09:39:25;;;;;;;13.77;8.80;;;;;;;-142.25;100.00;58004.16;5032032;28;20041;-60
2022/12/10 09:42:12;;;;;;;13.93;9.87;;;;;;;-142.25;100.00;58004.16;5029824;28;20053;-60
2022/12/10 09:44:42;;;;;;;15.43;9.80;;;;;;;-142.25;100.00;58004.16;5030279;28;20404;-58
2022/12/10 09:47:10;;;;;;;17.73;10.23;;;;;;;-142.25;100.00;58004.16;5034646;28;20080;-59
2022/12/10 09:50:09;;;;;;;18.50;9.97;;;;;;;-142.25;100.00;58004.16;5036087;28;20041;-60
2022/12/10 09:52:47;;;;;;;18.77;10.70;;;;;;;-142.25;100.00;58004.16;5034853;28;20072;-65
2022/12/10 09:55:20;;;;;;;16.13;10.33;;;;;;;-142.25;100.00;58004.16;5034938;28;20555;-60
2022/12/10 09:57:50;;;;;;;18.07;10.00;;;;;;;-142.25;100.00;58004.16;5035317;28;20033;-59
2022/12/10 10:00:34;;;;;;;17.20;11.27;;;;;;;-142.25;100.00;58004.16;5033588;28;20463;-60
2022/12/10 10:03:01;;;;;;;17.87;11.83;;;;;;;-142.25;100.00;58004.16;5032389;28;20029;-61
2022/12/10 10:05:37;;;;;;;21.33;12.00;;;;;;;-142.25;100.00;58004.16;5030776;28;20266;-62
2022/12/10 10:08:07;;;;;;;22.50;12.90;;;;;;;-142.25;100.00;58004.16;5026662;28;20037;-60
2022/12/10 10:10:35;;;;;;;16.93;10.77;;;;;;;-142.25;100.00;58004.16;5032875;28;20064;-61
2022/12/10 10:13:17;;;;;;;19.87;11.20;;;;;;;-142.25;100.00;58004.16;5030326;28;20029;-60
2022/12/10 10:15:44;;;;;;;18.70;11.40;;;;;;;-142.25;100.00;58004.16;5027605;28;20048;-61
2022/12/10 10:18:17;;;;;;;19.47;11.90;;;;;;;-142.25;100.00;58004.16;5034659;28;20088;-60
2022/12/10 10:20:43;;;;;;;21.83;12.40;;;;;;;-142.25;100.00;58004.16;5035096;28;20041;-60
2022/12/10 10:23:14;;;;;;;19.33;12.73;;;;;;;-142.25;100.00;58004.16;5031652;28;20053;-60
2022/12/10 10:25:40;;;;;;;23.10;13.13;;;;;;;-142.25;100.00;58004.16;5034871;28;20092;-59
2022/12/10 10:28:12;;;;;;;19.10;11.47;;;;;;;-142.25;100.00;58004.16;5035096;28;20053;-59
2022/12/10 10:30:42;;;;;;;22.00;13.03;;;;;;;-142.25;100.00;58004.16;5034325;28;20623;-60
2022/12/10 10:33:10;;;;;;;20.83;12.57;;;;;;;-142.25;100.00;58004.16;5031368;28;20037;-61
2022/12/10 10:35:49;;;;;;;18.57;11.67;;;;;;;-142.25;100.00;58004.16;5032699;28;20111;-59
2022/12/10 10:38:46;;;;;;;20.23;13.00;;;;;;;-142.25;100.00;58004.16;5033513;28;20215;-60
2022/12/10 10:41:14;;;;;;;21.97;13.13;;;;;;;-142.25;100.00;58004.16;5033209;28;20053;-59
2022/12/10 10:43:44;;;;;;;17.93;11.37;;;;;;;-142.25;100.00;58004.16;5033383;28;20039;-59
2022/12/10 10:46:23;;;;;;;20.57;13.30;;;;;;;-142.25;100.00;58004.16;5034137;28;20040;-59
2022/12/10 10:48:50;;;;;;;22.93;13.53;;;;;;;-142.25;100.00;58004.16;5049196;28;20036;-58
2022/12/10 10:51:23;;;;;;;19.73;12.30;;;;;;;-142.25;100.00;58004.16;5048253;28;20775;-58
2022/12/10 10:53:54;;;;;;;20.20;11.23;;;;;;;-142.25;100.00;58004.16;5032487;28;20040;-58
2022/12/10 10:56:39;;;;;;;20.23;10.70;;;;;;;-142.25;100.00;58004.16;5033848;28;20037;-56
2022/12/10 10:59:07;;;;;;;17.50;10.67;;;;;;;-142.25;100.00;58004.16;5025497;28;20474;-60
2022/12/10 11:01:53;;;;;;;17.93;10.07;;;;;;;-142.25;100.00;58004.16;5028482;28;20408;-58
2022/12/10 11:04:45;;;;;;;16.73;10.80;;;;;;;-142.25;100.00;58004.16;5024231;28;20053;-58
2022/12/10 11:07:26;;;;;;;17.60;11.20;;;;;;;-142.25;100.00;58004.16;5028243;28;20052;-61
2022/12/10 11:09:54;;;;;;;19.07;10.70;;;;;;;-142.25;100.00;58004.16;5027671;28;20032;-60
2022/12/10 11:12:39;;;;;;;18.53;11.80;;;;;;;-142.25;100.00;58004.16;5027658;28;20041;-58
2022/12/10 11:15:24;;;;;;;17.58;11.55;;;;;;;-142.25;100.00;58004.16;5033710;28;20621;-58
2022/12/10 11:17:52;;;;;;;20.60;11.37;;;;;;;-142.25;100.00;58004.16;5032658;28;20483;-60
2022/12/10 11:20:25;;;;;;;21.97;11.40;;;;;;;-142.25;100.00;58004.16;5033020;28;20052;-59
2022/12/10 11:22:56;;;;;;;20.60;11.47;;;;;;;-142.25;100.00;58004.16;5028683;28;20476;-58